Time;durP1;ratioP1;P1;durP2;ratioP2;P2;SDS_P1;SDS_P2;PMS_P1;PMS_P2;Temp;Humidity;BMP_temperature;BMP_pressure;BME280_temperature;BME280_humidity;BME280_pressure;Samples;Min_cycle;Max_cycle;Signal;HPM_P1;HPM_P2
2023/11/18 00:01:48;;;;;;;15.25;3.00;;;8.90;99.90;;;;;;6276887;28;20053;-89
2023/11/18 00:04:51;;;;;;;12.23;2.95;;;8.80;99.90;;;;;;6252104;28;20433;-89
2023/11/18 00:07:53;;;;;;;10.32;3.00;;;8.80;99.90;;;;;;6275958;28;20492;-89
2023/11/18 00:10:54;;;;;;;10.40;2.33;;;8.80;99.90;;;;;;6254070;28;20132;-91
2023/11/18 00:13:56;;;;;;;11.00;2.50;;;8.80;99.90;;;;;;6266474;28;20089;-90
2023/11/18 00:16:59;;;;;;;11.15;2.10;;;8.80;99.90;;;;;;6259617;28;20056;-89
2023/11/18 00:20:02;;;;;;;9.48;2.05;;;8.80;99.90;;;;;;6235078;28;20183;-89
2023/11/18 00:23:04;;;;;;;6.55;1.90;;;8.70;99.90;;;;;;6258983;28;20052;-90
2023/11/18 00:26:06;;;;;;;9.38;2.00;;;8.70;99.90;;;;;;6252774;28;20562;-90
2023/11/18 00:29:08;;;;;;;10.98;1.98;;;8.70;99.90;;;;;;6244193;28;20049;-90
2023/11/18 00:32:10;;;;;;;9.02;2.25;;;8.70;99.90;;;;;;6273594;28;20069;-89
2023/11/18 00:35:12;;;;;;;9.85;1.90;;;8.70;99.90;;;;;;6233461;28;20823;-89
2023/11/18 00:38:13;;;;;;;10.45;2.10;;;8.70;99.90;;;;;;6275424;28;20056;-88
2023/11/18 00:41:17;;;;;;;11.50;2.35;;;8.80;99.90;;;;;;6252255;28;20064;-89
2023/11/18 00:44:19;;;;;;;10.48;2.00;;;8.80;99.90;;;;;;6247157;28;20056;-89
2023/11/18 00:47:22;;;;;;;14.10;2.33;;;8.80;99.90;;;;;;6247856;28;20064;-90
2023/11/18 00:50:24;;;;;;;11.75;2.55;;;8.70;99.90;;;;;;6275062;28;20492;-90
2023/11/18 00:53:25;;;;;;;12.57;2.53;;;8.80;99.90;;;;;;6250408;28;20136;-89
2023/11/18 00:56:28;;;;;;;17.48;2.92;;;8.80;99.90;;;;;;6256466;28;20049;-90
2023/11/18 00:59:30;;;;;;;11.50;2.90;;;8.80;99.90;;;;;;6262001;28;20481;-90
2023/11/18 01:02:32;;;;;;;10.68;2.78;;;8.60;99.90;;;;;;6251405;28;20057;-91
2023/11/18 01:05:34;;;;;;;13.38;2.88;;;8.60;99.90;;;;;;6257720;28;20045;-90
2023/11/18 01:08:36;;;;;;;10.32;3.05;;;8.50;99.90;;;;;;6233843;28;20734;-90
2023/11/18 01:11:37;;;;;;;13.63;3.35;;;8.50;99.90;;;;;;6255853;28;20049;-86
2023/11/18 01:14:39;;;;;;;14.68;2.85;;;8.40;99.90;;;;;;6241547;28;20045;-90
2023/11/18 01:17:41;;;;;;;9.68;3.10;;;8.40;99.90;;;;;;6250865;28;20053;-91
2023/11/18 01:20:43;;;;;;;14.25;2.90;;;8.40;99.90;;;;;;6275444;28;20057;-90
2023/11/18 01:23:44;;;;;;;8.40;2.90;;;8.40;99.90;;;;;;6251547;28;20050;-89
2023/11/18 01:26:46;;;;;;;11.40;2.92;;;8.40;99.90;;;;;;6275154;28;20052;-90
2023/11/18 01:29:48;;;;;;;14.18;2.72;;;8.40;99.90;;;;;;6263477;28;20515;-91
2023/11/18 01:32:50;;;;;;;9.40;2.30;;;8.50;99.90;;;;;;6251534;28;20060;-91
2023/11/18 01:35:51;;;;;;;7.25;2.55;;;8.50;99.90;;;;;;6274769;28;20518;-90
2023/11/18 01:38:55;;;;;;;11.13;2.17;;;8.50;99.90;;;;;;6234458;28;20140;-89
2023/11/18 01:41:59;;;;;;;8.23;2.08;;;8.60;99.90;;;;;;6273250;28;20048;-89
2023/11/18 01:45:04;;;;;;;8.10;1.90;;;8.60;99.90;;;;;;6232013;28;20089;-90
2023/11/18 01:48:06;;;;;;;9.43;1.90;;;8.70;99.90;;;;;;6249227;28;20048;-88
2023/11/18 01:51:09;;;;;;;8.68;1.90;;;8.70;99.90;;;;;;6275022;28;20063;-89
2023/11/18 01:54:14;;;;;;;9.07;1.85;;;8.70;99.90;;;;;;6250862;28;20046;-90
2023/11/18 01:57:16;;;;;;;7.68;1.83;;;8.70;99.90;;;;;;6256912;28;20053;-91
2023/11/18 02:00:18;;;;;;;12.07;1.98;;;8.70;99.90;;;;;;6246923;28;20045;-90
2023/11/18 02:03:20;;;;;;;6.20;1.75;;;8.70;99.90;;;;;;6273934;28;20045;-89
2023/11/18 02:06:22;;;;;;;11.02;2.20;;;8.70;99.90;;;;;;6251189;28;20133;-90
2023/11/18 02:09:27;;;;;;;5.88;1.85;;;8.60;99.90;;;;;;6257703;28;20048;-91
2023/11/18 02:12:29;;;;;;;6.55;1.63;;;8.70;99.90;;;;;;6251399;28;20750;-91
2023/11/18 02:15:31;;;;;;;5.20;1.50;;;8.60;99.90;;;;;;6272997;28;20049;-93
2023/11/18 02:18:33;;;;;;;8.07;2.13;;;8.70;99.90;;;;;;6253114;28;20100;-93
2023/11/18 02:21:35;;;;;;;5.93;2.00;;;8.70;99.90;;;;;;6276348;28;20055;-91
2023/11/18 02:24:37;;;;;;;9.00;1.80;;;8.70;99.90;;;;;;6240003;28;20114;-92
2023/11/18 02:27:39;;;;;;;9.52;2.22;;;8.70;99.90;;;;;;6282659;28;20064;-91
2023/11/18 02:30:40;;;;;;;8.45;1.92;;;8.70;99.90;;;;;;6255235;28;20045;-91
2023/11/18 02:33:42;;;;;;;5.28;1.60;;;8.80;99.90;;;;;;6281425;28;20084;-91
2023/11/18 02:36:45;;;;;;;6.93;1.73;;;8.80;99.90;;;;;;6255975;28;20057;-89
2023/11/18 02:39:49;;;;;;;9.88;1.90;;;8.90;99.90;;;;;;6278945;28;20060;-90
2023/11/18 02:42:52;;;;;;;11.10;1.88;;;8.90;99.90;;;;;;6255168;28;20134;-90
2023/11/18 02:45:56;;;;;;;8.32;2.05;;;9.00;99.90;;;;;;6264403;28;20064;-90
2023/11/18 02:48:57;;;;;;;6.75;1.75;;;9.00;99.90;;;;;;6280280;28;20056;-91
2023/11/18 02:51:59;;;;;;;8.95;2.00;;;9.00;99.90;;;;;;6254652;28;20061;-87
2023/11/18 02:55:01;;;;;;;8.50;1.65;;;9.10;99.90;;;;;;6278404;28;20053;-90
2023/11/18 02:58:03;;;;;;;6.25;1.55;;;9.10;99.90;;;;;;6239119;28;20111;-88
2023/11/18 03:01:07;;;;;;;6.10;1.60;;;9.10;99.90;;;;;;6249577;28;20068;-92
2023/11/18 03:04:10;;;;;;;5.13;1.55;;;9.20;99.90;;;;;;6274648;28;20053;-90
2023/11/18 03:07:11;;;;;;;4.55;1.52;;;9.20;99.90;;;;;;6251668;28;20052;-90
2023/11/18 03:10:20;;;;;;;6.28;1.80;;;9.20;99.90;;;;;;6277536;28;20053;-90
2023/11/18 03:13:23;;;;;;;4.35;1.40;;;9.30;99.90;;;;;;6234210;28;20048;-90
2023/11/18 03:16:24;;;;;;;4.80;1.60;;;9.40;99.90;;;;;;6277333;28;20056;-88
2023/11/18 03:19:26;;;;;;;6.25;1.38;;;9.40;99.90;;;;;;6235689;28;20057;-89
2023/11/18 03:22:28;;;;;;;7.38;1.77;;;9.50;99.90;;;;;;6277125;28;20434;-90
2023/11/18 03:25:29;;;;;;;6.28;1.20;;;9.50;99.90;;;;;;6252865;28;20523;-90
2023/11/18 03:28:31;;;;;;;6.20;1.60;;;9.50;99.90;;;;;;6267550;28;20646;-90
2023/11/18 03:31:33;;;;;;;3.75;1.17;;;9.60;99.90;;;;;;6371908;22;20139;-90
2023/11/18 03:34:35;;;;;;;7.28;1.23;;;9.70;99.90;;;;;;6298400;28;20064;-89
2023/11/18 03:37:43;;;;;;;6.00;1.20;;;9.70;99.90;;;;;;6284201;28;20084;-89
2023/11/18 03:40:46;;;;;;;6.72;1.25;;;9.70;99.90;;;;;;6312921;28;20060;-91
2023/11/18 03:43:48;;;;;;;7.47;1.85;;;9.80;99.90;;;;;;6285773;28;20060;-90
2023/11/18 03:46:49;;;;;;;5.93;1.70;;;9.80;99.90;;;;;;6302366;28;20052;-92
2023/11/18 03:49:51;;;;;;;7.38;1.45;;;9.80;99.90;;;;;;6302305;28;20053;-91
2023/11/18 03:52:53;;;;;;;3.05;0.82;;;9.80;99.90;;;;;;6304829;28;20061;-91
2023/11/18 03:55:54;;;;;;;5.20;1.05;;;9.90;99.90;;;;;;6303124;28;20060;-91
2023/11/18 03:58:56;;;;;;;4.43;1.00;;;9.90;99.90;;;;;;6299802;28;20132;-93
2023/11/18 04:01:58;;;;;;;4.47;0.90;;;9.90;99.90;;;;;;6302577;28;20067;-89
2023/11/18 04:04:59;;;;;;;3.40;0.93;;;9.90;99.90;;;;;;6283817;28;20563;-92
2023/11/18 04:08:01;;;;;;;4.25;0.90;;;9.90;99.90;;;;;;6288244;28;20052;-90
2023/11/18 04:11:04;;;;;;;3.17;0.95;;;9.90;99.90;;;;;;6281579;28;20230;-90
2023/11/18 04:14:07;;;;;;;2.55;0.73;;;9.90;99.90;;;;;;6295119;28;20052;-88
2023/11/18 04:17:09;;;;;;;3.80;0.77;;;10.00;99.90;;;;;;6298073;28;20060;-89
2023/11/18 04:20:11;;;;;;;4.20;0.70;;;10.00;99.90;;;;;;6281196;28;20165;-89
2023/11/18 04:23:14;;;;;;;3.75;0.80;;;10.10;99.90;;;;;;6297377;28;20519;-89
2023/11/18 04:26:16;;;;;;;2.38;0.70;;;10.10;99.90;;;;;;6278724;28;20411;-87
2023/11/18 04:29:18;;;;;;;2.65;0.90;;;10.10;99.90;;;;;;6292471;28;20056;-86
2023/11/18 04:32:20;;;;;;;4.07;0.82;;;10.10;99.90;;;;;;6293013;28;20541;-84
2023/11/18 04:35:22;;;;;;;2.22;0.55;;;10.10;99.90;;;;;;6295033;28;20052;-82
2023/11/18 04:38:24;;;;;;;5.63;0.70;;;10.20;99.90;;;;;;6277206;28;20129;-85
2023/11/18 04:41:26;;;;;;;2.35;0.60;;;10.20;99.90;;;;;;6276927;28;20392;-82
2023/11/18 04:44:27;;;;;;;2.15;0.50;;;10.20;99.90;;;;;;6275544;28;20052;-84
2023/11/18 04:47:30;;;;;;;1.63;0.40;;;10.20;99.90;;;;;;6276566;28;20049;-84
2023/11/18 04:50:32;;;;;;;1.00;0.50;;;10.20;99.90;;;;;;6276636;28;20049;-83
2023/11/18 04:53:34;;;;;;;1.13;0.38;;;10.30;99.90;;;;;;6294524;28;20048;-82
2023/11/18 04:56:36;;;;;;;1.88;0.40;;;10.30;99.90;;;;;;6276606;28;20048;-83
2023/11/18 04:59:37;;;;;;;0.55;0.30;;;10.30;99.90;;;;;;6271358;28;20055;-85
2023/11/18 05:02:39;;;;;;;0.52;0.40;;;10.40;99.90;;;;;;6294099;28;20114;-84
2023/11/18 05:05:41;;;;;;;0.57;0.30;;;10.40;99.90;;;;;;6274185;28;20568;-83
2023/11/18 05:08:43;;;;;;;2.35;0.40;;;10.40;99.90;;;;;;6276952;28;20052;-83
2023/11/18 05:11:45;;;;;;;0.75;0.40;;;10.50;99.90;;;;;;6294522;28;20548;-83
2023/11/18 05:14:49;;;;;;;1.20;0.40;;;10.50;99.90;;;;;;6273204;28;20057;-83
2023/11/18 05:17:51;;;;;;;1.35;0.50;;;10.60;99.90;;;;;;6294012;28;20425;-84
2023/11/18 05:20:54;;;;;;;1.45;0.52;;;10.60;99.90;;;;;;6294193;28;20060;-82
2023/11/18 05:23:56;;;;;;;2.13;0.60;;;10.60;99.90;;;;;;6293922;28;20060;-83
2023/11/18 05:27:01;;;;;;;2.78;0.60;;;10.70;99.90;;;;;;6294245;28;20052;-84
2023/11/18 05:30:03;;;;;;;1.27;0.50;;;10.70;99.90;;;;;;6293276;28;20060;-81
2023/11/18 05:33:05;;;;;;;2.28;0.50;;;10.80;99.90;;;;;;6275814;28;20052;-83
2023/11/18 05:36:07;;;;;;;0.93;0.40;;;10.80;99.90;;;;;;6294351;28;20048;-84
2023/11/18 05:39:09;;;;;;;1.10;0.40;;;10.80;99.90;;;;;;6293998;28;20063;-84
2023/11/18 05:42:11;;;;;;;1.60;0.93;;;10.80;99.90;;;;;;6293940;28;20475;-84
2023/11/18 05:45:27;;;;;;;1.38;0.57;;;10.90;99.90;;;;;;6291449;28;20052;-83
2023/11/18 05:48:29;;;;;;;2.33;0.70;;;10.90;99.90;;;;;;6253446;28;20068;-83
2023/11/18 05:51:31;;;;;;;1.45;0.50;;;10.90;99.90;;;;;;6268478;28;20057;-84
2023/11/18 05:54:33;;;;;;;4.75;0.70;;;10.90;99.90;;;;;;6276615;28;20049;-83
2023/11/18 05:57:35;;;;;;;1.50;0.90;;;10.90;99.90;;;;;;6293781;28;20059;-83
2023/11/18 06:00:37;;;;;;;2.97;0.70;;;10.90;99.90;;;;;;6274200;28;20656;-85
2023/11/18 06:03:42;;;;;;;1.17;0.35;;;11.00;99.90;;;;;;6275456;28;20407;-83
2023/11/18 06:06:44;;;;;;;2.55;0.57;;;11.00;99.90;;;;;;6291673;28;20059;-84
2023/11/18 06:09:46;;;;;;;1.42;0.50;;;11.00;99.90;;;;;;6293536;28;20052;-84
2023/11/18 06:12:48;;;;;;;1.42;0.60;;;11.10;99.90;;;;;;6293363;28;20139;-83
2023/11/18 06:15:51;;;;;;;1.02;0.40;;;11.10;99.90;;;;;;6272580;28;20534;-83
2023/11/18 06:18:53;;;;;;;1.13;0.57;;;11.00;99.90;;;;;;6275359;28;20072;-84
2023/11/18 06:21:54;;;;;;;2.08;0.50;;;11.10;99.90;;;;;;6275352;28;20053;-83
2023/11/18 06:24:56;;;;;;;4.82;0.73;;;11.10;99.90;;;;;;6293275;28;20075;-85
2023/11/18 06:27:58;;;;;;;2.15;0.43;;;11.10;99.90;;;;;;6274855;28;20049;-84
2023/11/18 06:30:59;;;;;;;0.95;0.30;;;11.10;99.90;;;;;;6272170;28;20191;-84
2023/11/18 06:34:03;;;;;;;1.55;0.40;;;11.20;99.90;;;;;;6293032;28;20127;-82
2023/11/18 06:37:05;;;;;;;1.20;0.40;;;11.20;99.90;;;;;;6293222;28;20056;-81
2023/11/18 06:40:16;;;;;;;0.90;0.50;;;11.20;99.90;;;;;;6293043;28;20052;-83
2023/11/18 06:43:18;;;;;;;1.02;0.47;;;11.20;99.90;;;;;;6250542;28;20056;-82
2023/11/18 06:46:23;;;;;;;1.60;0.50;;;11.30;99.90;;;;;;6274914;28;20145;-83
2023/11/18 06:49:25;;;;;;;0.70;0.30;;;11.20;99.90;;;;;;6268938;28;20056;-84
2023/11/18 06:52:28;;;;;;;1.40;0.40;;;11.20;99.90;;;;;;6274545;28;20063;-84
2023/11/18 06:55:29;;;;;;;1.17;0.30;;;11.20;99.90;;;;;;6292981;28;20052;-82
2023/11/18 06:58:31;;;;;;;1.05;0.40;;;11.20;99.90;;;;;;6290070;28;20537;-84
2023/11/18 07:01:33;;;;;;;0.98;0.40;;;11.30;99.90;;;;;;6293086;28;20052;-83
2023/11/18 07:04:35;;;;;;;1.33;0.40;;;11.30;99.90;;;;;;6292333;28;20534;-83
2023/11/18 07:07:37;;;;;;;1.50;0.65;;;11.30;99.90;;;;;;6290769;28;20049;-83
2023/11/18 07:10:39;;;;;;;0.75;0.38;;;11.30;99.90;;;;;;6296423;28;20078;-84
2023/11/18 07:13:41;;;;;;;0.63;0.35;;;11.30;99.90;;;;;;6275029;28;20063;-83
2023/11/18 07:16:44;;;;;;;0.98;0.38;;;11.30;99.90;;;;;;6297105;28;20550;-82
2023/11/18 07:19:45;;;;;;;1.45;0.40;;;11.30;99.90;;;;;;6297149;28;20053;-86
2023/11/18 07:22:47;;;;;;;0.98;0.28;;;11.40;99.90;;;;;;6297468;28;20048;-84
2023/11/18 07:25:49;;;;;;;0.73;0.30;;;11.40;99.90;;;;;;6279123;28;20091;-83
2023/11/18 07:28:51;;;;;;;0.60;0.40;;;11.40;99.90;;;;;;6277378;28;20056;-83
2023/11/18 07:31:54;;;;;;;1.58;0.35;;;11.40;99.90;;;;;;6278981;28;20057;-83
2023/11/18 07:34:56;;;;;;;1.25;0.30;;;11.40;99.90;;;;;;6296807;28;20052;-83
2023/11/18 07:37:58;;;;;;;1.02;0.25;;;11.50;99.90;;;;;;6297345;28;20229;-85
2023/11/18 07:41:02;;;;;;;0.32;0.28;;;11.60;99.90;;;;;;6281719;28;20063;-85
2023/11/18 07:44:04;;;;;;;0.30;0.30;;;11.50;99.90;;;;;;6293857;28;20060;-84
2023/11/18 07:47:06;;;;;;;2.40;0.40;;;11.60;99.90;;;;;;6279007;28;20053;-84
2023/11/18 07:50:12;;;;;;;0.40;0.30;;;11.60;99.90;;;;;;6296786;28;20087;-85
2023/11/18 07:53:13;;;;;;;1.20;0.25;;;11.70;99.90;;;;;;6272252;28;20056;-82
2023/11/18 07:56:16;;;;;;;3.78;0.50;;;11.70;99.90;;;;;;6295991;28;20048;-82
2023/11/18 07:59:18;;;;;;;1.23;0.40;;;11.70;99.90;;;;;;6294303;28;20546;-83
2023/11/18 08:02:20;;;;;;;2.55;0.30;;;11.80;99.90;;;;;;6278599;28;20129;-82
2023/11/18 08:05:22;;;;;;;0.88;0.38;;;11.80;99.90;;;;;;6294794;28;20052;-82
2023/11/18 08:08:25;;;;;;;1.83;0.30;;;11.90;99.90;;;;;;6295497;28;20051;-83
2023/11/18 08:11:27;;;;;;;2.28;0.45;;;11.90;99.90;;;;;;6296097;28;20056;-83
2023/11/18 08:14:29;;;;;;;0.82;0.30;;;11.90;99.90;;;;;;6295455;28;20419;-82
2023/11/18 08:17:30;;;;;;;0.80;0.30;;;12.00;99.90;;;;;;6297277;28;20055;-83
2023/11/18 08:20:32;;;;;;;0.38;0.30;;;12.00;99.90;;;;;;6281740;28;20118;-85
2023/11/18 08:23:34;;;;;;;0.47;0.28;;;12.10;99.90;;;;;;6297563;28;20049;-84
2023/11/18 08:26:36;;;;;;;1.48;0.30;;;12.10;99.90;;;;;;6304433;28;20079;-86
2023/11/18 08:29:38;;;;;;;0.38;0.28;;;12.20;99.90;;;;;;6279786;28;20533;-84
2023/11/18 08:32:40;;;;;;;1.00;0.40;;;12.30;99.90;;;;;;6295516;28;20056;-83
2023/11/18 08:35:42;;;;;;;0.50;0.30;;;12.30;99.90;;;;;;6277422;28;20067;-87
2023/11/18 08:38:45;;;;;;;1.63;0.40;;;12.40;99.90;;;;;;6278182;28;20067;-81
2023/11/18 08:41:46;;;;;;;0.30;0.20;;;12.40;99.90;;;;;;6294906;28;20143;-80
2023/11/18 08:44:48;;;;;;;0.55;0.40;;;12.50;99.90;;;;;;6291520;28;20049;-80
2023/11/18 08:47:49;;;;;;;0.68;0.40;;;12.60;99.90;;;;;;6294597;28;20059;-82
2023/11/18 08:50:51;;;;;;;0.20;0.20;;;12.60;99.90;;;;;;6295060;28;20052;-82
2023/11/18 08:53:54;;;;;;;1.15;0.30;;;12.70;99.90;;;;;;6294921;28;20177;-81
2023/11/18 08:56:57;;;;;;;1.33;0.30;;;12.80;99.90;;;;;;6295042;28;20041;-83
2023/11/18 08:59:59;;;;;;;0.77;0.40;;;12.90;99.90;;;;;;6292575;28;20121;-83
2023/11/18 09:03:01;;;;;;;0.30;0.30;;;12.90;99.90;;;;;;6294533;28;20137;-84
2023/11/18 09:06:06;;;;;;;0.98;0.30;;;13.00;99.90;;;;;;6277662;28;20843;-84
2023/11/18 09:09:11;;;;;;;1.52;0.40;;;13.00;99.90;;;;;;6278710;28;20049;-83
2023/11/18 09:12:14;;;;;;;2.08;0.43;;;13.10;99.90;;;;;;6279510;28;20130;-87
2023/11/18 09:15:22;;;;;;;0.70;0.35;;;13.10;99.90;;;;;;6278793;28;20052;-89
2023/11/18 09:18:24;;;;;;;2.05;0.60;;;13.20;99.90;;;;;;6274274;28;20057;-86
2023/11/18 09:21:29;;;;;;;1.75;0.30;;;13.20;99.90;;;;;;6297918;28;20145;-85
2023/11/18 09:24:33;;;;;;;1.20;0.65;;;13.30;99.90;;;;;;6300525;28;20118;-89
2023/11/18 09:27:36;;;;;;;0.40;0.30;;;13.30;99.90;;;;;;6278651;28;20071;-85
2023/11/18 09:30:49;;;;;;;2.28;0.50;;;13.30;99.90;;;;;;6274553;28;20631;-84
2023/11/18 09:33:57;;;;;;;1.88;0.60;;;13.40;99.90;;;;;;6294927;28;20203;-86
2023/11/18 09:36:59;;;;;;;2.35;0.50;;;13.40;99.90;;;;;;6253310;28;20049;-84
2023/11/18 09:40:11;;;;;;;1.17;0.50;;;13.40;99.90;;;;;;6268592;28;20053;-85
2023/11/18 09:43:15;;;;;;;1.08;0.40;;;13.50;99.90;;;;;;6271141;28;20050;-85
2023/11/18 09:46:18;;;;;;;1.75;0.40;;;13.60;99.90;;;;;;6276562;28;20078;-84
2023/11/18 09:49:25;;;;;;;1.52;0.50;;;13.60;99.90;;;;;;6252514;28;20056;-83
2023/11/18 09:52:27;;;;;;;1.42;0.47;;;13.60;99.90;;;;;;6269977;28;20143;-85
2023/11/18 09:55:31;;;;;;;1.40;0.40;;;13.70;99.90;;;;;;6275818;28;20053;-86
2023/11/18 09:58:33;;;;;;;0.82;0.43;;;13.70;99.90;;;;;;6291408;28;20051;-85
2023/11/18 10:01:37;;;;;;;1.25;0.40;;;13.80;99.90;;;;;;6275852;28;20061;-82
2023/11/18 10:04:39;;;;;;;0.98;0.40;;;13.80;99.90;;;;;;6293460;28;20449;-83
2023/11/18 10:07:41;;;;;;;1.48;0.60;;;13.80;99.90;;;;;;6279656;28;20483;-86
2023/11/18 10:10:45;;;;;;;1.50;0.88;;;14.00;99.90;;;;;;6294467;28;20076;-84
2023/11/18 10:13:48;;;;;;;0.80;0.50;;;14.10;99.90;;;;;;6293049;28;20063;-87
2023/11/18 10:16:53;;;;;;;0.40;0.30;;;14.10;99.90;;;;;;6294574;28;20135;-84
2023/11/18 10:19:55;;;;;;;2.75;0.57;;;14.10;99.90;;;;;;6294492;28;20041;-84
2023/11/18 10:22:57;;;;;;;1.50;0.50;;;14.20;99.90;;;;;;6293948;28;20056;-83
2023/11/18 10:26:00;;;;;;;1.30;0.50;;;14.20;99.90;;;;;;6293442;28;20173;-85
2023/11/18 10:29:02;;;;;;;2.45;0.60;;;14.20;99.90;;;;;;6292933;28;20510;-87
2023/11/18 10:32:07;;;;;;;1.15;0.50;;;14.30;99.90;;;;;;6293697;28;20514;-88
2023/11/18 10:35:10;;;;;;;1.40;0.50;;;14.20;99.90;;;;;;6276628;28;20057;-85
2023/11/18 10:38:16;;;;;;;2.25;0.60;;;14.30;99.90;;;;;;6276708;28;20048;-83
2023/11/18 10:41:18;;;;;;;2.50;0.60;;;14.30;99.90;;;;;;6297340;28;20510;-84
2023/11/18 10:44:23;;;;;;;2.67;0.60;;;14.30;99.90;;;;;;6290921;28;20113;-85
2023/11/18 10:47:25;;;;;;;3.08;0.65;;;14.40;99.90;;;;;;6281828;28;20111;-81
2023/11/18 10:50:31;;;;;;;1.60;0.50;;;14.40;99.90;;;;;;6280224;28;20052;-84
2023/11/18 10:53:37;;;;;;;1.70;0.60;;;14.40;99.90;;;;;;6281433;28;20135;-85
2023/11/18 10:56:38;;;;;;;6.22;0.65;;;14.40;99.90;;;;;;6299527;28;20040;-85
2023/11/18 10:59:40;;;;;;;1.75;0.63;;;14.50;99.90;;;;;;6280194;28;20415;-79
2023/11/18 11:02:42;;;;;;;1.45;0.50;;;14.50;99.90;;;;;;6300495;28;20056;-83
2023/11/18 11:05:44;;;;;;;3.33;0.85;;;14.60;99.90;;;;;;6296488;28;20527;-83
2023/11/18 11:08:48;;;;;;;0.60;0.40;;;14.60;99.90;;;;;;6279861;28;20130;-89
2023/11/18 11:11:49;;;;;;;1.13;0.43;;;14.60;99.90;;;;;;6280167;28;20521;-83
2023/11/18 11:14:53;;;;;;;1.20;0.50;;;14.60;99.90;;;;;;6294352;28;20060;-81
2023/11/18 11:17:55;;;;;;;2.22;0.50;;;14.60;99.90;;;;;;6296986;28;20079;-83
2023/11/18 11:20:56;;;;;;;5.05;0.60;;;14.70;99.90;;;;;;6296903;28;20052;-82
2023/11/18 11:23:59;;;;;;;1.50;0.50;;;14.70;99.90;;;;;;6279449;28;20426;-82
2023/11/18 11:27:04;;;;;;;1.65;0.50;;;14.90;99.90;;;;;;6297157;28;20534;-85
2023/11/18 11:30:10;;;;;;;1.45;0.50;;;14.90;99.90;;;;;;6295628;28;20067;-85
2023/11/18 11:33:12;;;;;;;1.75;0.50;;;14.90;99.90;;;;;;6280033;28;20089;-83
2023/11/18 11:36:16;;;;;;;1.13;0.60;;;14.90;99.90;;;;;;6296850;28;20487;-84
2023/11/18 11:39:21;;;;;;;1.73;0.50;;;14.80;99.90;;;;;;6293550;28;20132;-83
2023/11/18 11:42:23;;;;;;;1.85;0.57;;;14.80;99.90;;;;;;6254107;28;20428;-88
2023/11/18 11:45:28;;;;;;;1.38;0.40;;;14.80;99.90;;;;;;6273357;28;20063;-86
2023/11/18 11:48:36;;;;;;;4.15;0.50;;;14.80;99.90;;;;;;6278659;28;20506;-88
2023/11/18 11:51:37;;;;;;;1.55;0.47;;;14.80;99.90;;;;;;6254492;28;20063;-87
2023/11/18 11:54:39;;;;;;;1.63;0.50;;;14.80;99.90;;;;;;6296534;28;20061;-87
2023/11/18 11:57:45;;;;;;;1.90;0.52;;;14.80;99.90;;;;;;6280882;28;20056;-82
2023/11/18 12:00:48;;;;;;;2.85;0.50;;;14.90;99.90;;;;;;6277740;28;20060;-86
2023/11/18 12:03:49;;;;;;;2.53;0.65;;;15.00;99.90;;;;;;6279096;28;20063;-84
2023/11/18 12:06:53;;;;;;;1.85;0.82;;;15.10;99.90;;;;;;6295706;28;20052;-84
2023/11/18 12:10:01;;;;;;;1.42;0.50;;;15.10;99.90;;;;;;6271492;28;20049;-88
2023/11/18 12:13:04;;;;;;;1.40;0.60;;;14.90;99.90;;;;;;6276560;28;20538;-84
2023/11/18 12:16:09;;;;;;;1.98;0.50;;;14.90;99.90;;;;;;6276734;28;20049;-86
2023/11/18 12:19:11;;;;;;;1.35;0.50;;;14.90;99.90;;;;;;6269708;28;20065;-86
2023/11/18 12:22:17;;;;;;;4.13;0.80;;;14.90;99.90;;;;;;6294563;28;20060;-83
2023/11/18 12:25:20;;;;;;;1.92;0.60;;;14.90;99.90;;;;;;6295699;28;20127;-84
2023/11/18 12:28:26;;;;;;;2.10;0.75;;;14.80;99.90;;;;;;6274514;28;20052;-84
2023/11/18 12:31:28;;;;;;;2.30;0.60;;;14.80;99.90;;;;;;6294769;28;20060;-84
2023/11/18 12:34:30;;;;;;;5.38;0.70;;;14.90;99.90;;;;;;6276980;28;20060;-84
2023/11/18 12:37:33;;;;;;;2.08;0.60;;;14.90;99.90;;;;;;6274941;28;20063;-83
2023/11/18 12:40:34;;;;;;;1.52;0.52;;;15.00;99.90;;;;;;6276844;28;20087;-83
2023/11/18 12:43:37;;;;;;;1.45;0.60;;;14.90;99.90;;;;;;6273904;28;20484;-84
2023/11/18 12:46:39;;;;;;;2.25;0.60;;;15.00;99.90;;;;;;6294855;28;20060;-84
2023/11/18 12:49:43;;;;;;;2.45;0.70;;;15.10;99.90;;;;;;6276363;28;20045;-85
2023/11/18 12:52:45;;;;;;;1.90;0.70;;;15.20;99.90;;;;;;6275873;28;20048;-82
2023/11/18 12:55:48;;;;;;;2.42;0.80;;;15.20;99.90;;;;;;6276509;28;20053;-81
2023/11/18 12:58:50;;;;;;;1.95;0.70;;;15.30;99.90;;;;;;6276365;28;20056;-83
2023/11/18 13:01:58;;;;;;;5.53;0.80;;;15.40;99.90;;;;;;6294092;28;20110;-80
2023/11/18 13:05:00;;;;;;;2.15;0.90;;;15.40;99.90;;;;;;6271135;28;20781;-84
2023/11/18 13:08:02;;;;;;;2.33;0.80;;;15.40;99.90;;;;;;6272364;28;20266;-82
2023/11/18 13:11:04;;;;;;;2.17;0.80;;;15.40;99.90;;;;;;6294135;28;20049;-83
2023/11/18 13:14:08;;;;;;;2.72;1.00;;;15.40;99.90;;;;;;6274082;28;20064;-84
2023/11/18 13:17:11;;;;;;;3.33;1.00;;;15.30;99.90;;;;;;6294349;28;20059;-84
2023/11/18 13:20:13;;;;;;;2.75;0.85;;;15.30;99.90;;;;;;6294526;28;20060;-84
2023/11/18 13:23:15;;;;;;;5.38;0.90;;;15.30;99.90;;;;;;6276372;28;20063;-83
2023/11/18 13:26:19;;;;;;;2.78;0.90;;;15.30;99.90;;;;;;6276323;28;20063;-83
2023/11/18 13:29:21;;;;;;;2.67;0.90;;;15.30;99.90;;;;;;6289182;28;20052;-82
2023/11/18 13:32:25;;;;;;;2.95;0.82;;;15.40;99.90;;;;;;6275137;28;20106;-83
2023/11/18 13:35:27;;;;;;;2.38;0.90;;;15.40;99.90;;;;;;6293556;28;20139;-83
2023/11/18 13:38:29;;;;;;;4.03;0.80;;;15.40;99.90;;;;;;6293850;28;20040;-82
2023/11/18 13:41:31;;;;;;;3.30;1.00;;;15.30;99.90;;;;;;6276005;28;20060;-83
2023/11/18 13:44:41;;;;;;;4.25;0.90;;;15.30;99.90;;;;;;6272791;28;20048;-83
2023/11/18 13:47:42;;;;;;;4.55;1.20;;;15.30;99.90;;;;;;6251084;28;20052;-82
2023/11/18 13:50:48;;;;;;;4.90;1.30;;;15.30;99.90;;;;;;6293226;28;20044;-83
2023/11/18 13:53:52;;;;;;;4.90;1.10;;;15.30;99.90;;;;;;6293855;28;20063;-84
2023/11/18 13:56:57;;;;;;;3.83;1.40;;;15.30;99.90;;;;;;6294436;28;20056;-84
2023/11/18 13:59:59;;;;;;;3.80;1.00;;;15.20;99.90;;;;;;6274854;28;20059;-82
2023/11/18 14:03:00;;;;;;;3.97;0.90;;;15.30;99.90;;;;;;6275410;28;20823;-82
2023/11/18 14:06:03;;;;;;;3.90;0.93;;;15.30;99.90;;;;;;6292966;28;20407;-83
2023/11/18 14:09:05;;;;;;;5.38;0.77;;;15.20;99.90;;;;;;6291891;28;20052;-84
2023/11/18 14:12:06;;;;;;;5.45;1.00;;;15.20;99.90;;;;;;6293122;28;20457;-82
2023/11/18 14:15:09;;;;;;;2.75;0.90;;;15.20;99.90;;;;;;6272603;28;20164;-83
2023/11/18 14:18:13;;;;;;;9.88;1.33;;;15.10;99.90;;;;;;6275419;28;20516;-84
2023/11/18 14:21:14;;;;;;;6.13;1.30;;;15.10;99.90;;;;;;6298348;28;20048;-83
2023/11/18 14:24:16;;;;;;;7.40;1.15;;;15.10;99.90;;;;;;6280359;28;20415;-83
2023/11/18 14:27:17;;;;;;;5.82;1.58;;;15.10;99.90;;;;;;6280534;28;20586;-84
2023/11/18 14:30:19;;;;;;;7.55;1.50;;;15.00;99.90;;;;;;6295277;28;20049;-83
2023/11/18 14:33:21;;;;;;;6.63;1.20;;;15.00;99.90;;;;;;6298735;28;20463;-83
2023/11/18 14:36:23;;;;;;;11.98;1.70;;;15.00;99.90;;;;;;6298433;28;20839;-83
2023/11/18 14:39:25;;;;;;;6.45;1.30;;;15.00;99.90;;;;;;6298158;28;20059;-84
2023/11/18 14:42:27;;;;;;;8.43;1.50;;;15.00;99.90;;;;;;6280323;28;20510;-84
2023/11/18 14:45:29;;;;;;;4.75;1.20;;;15.00;99.90;;;;;;6276207;28;20048;-83
2023/11/18 14:48:30;;;;;;;4.38;1.08;;;15.00;99.90;;;;;;6297866;28;20060;-84
2023/11/18 14:51:32;;;;;;;5.15;1.45;;;15.00;99.90;;;;;;6298141;28;20126;-83
2023/11/18 14:54:35;;;;;;;7.80;1.20;;;14.90;99.90;;;;;;6281445;28;20138;-83
2023/11/18 14:57:38;;;;;;;6.00;1.13;;;14.90;99.90;;;;;;6280708;28;20609;-83
2023/11/18 15:00:39;;;;;;;7.10;1.30;;;14.90;99.90;;;;;;6279263;28;20048;-83
2023/11/18 15:03:41;;;;;;;3.17;1.10;;;14.90;99.90;;;;;;6278909;28;20522;-80
2023/11/18 15:06:43;;;;;;;6.22;1.15;;;14.90;99.90;;;;;;6297490;28;20060;-83
2023/11/18 15:09:44;;;;;;;5.55;1.10;;;15.00;99.90;;;;;;6278592;28;20055;-84
2023/11/18 15:12:46;;;;;;;7.43;1.35;;;14.90;99.90;;;;;;6279979;28;20079;-83
2023/11/18 15:15:48;;;;;;;5.80;1.27;;;14.90;99.90;;;;;;6278933;28;20052;-84
2023/11/18 15:18:52;;;;;;;9.50;1.42;;;14.90;99.90;;;;;;6297386;28;20041;-81
2023/11/18 15:21:54;;;;;;;14.23;1.75;;;14.80;99.90;;;;;;6297262;28;20060;-83
2023/11/18 15:24:59;;;;;;;12.35;2.03;;;14.80;99.90;;;;;;6279718;28;20071;-83
2023/11/18 15:28:01;;;;;;;9.10;1.85;;;14.80;99.90;;;;;;6296367;28;20060;-84
2023/11/18 15:31:03;;;;;;;12.23;2.33;;;14.70;99.90;;;;;;6293528;28;20061;-81
2023/11/18 15:34:05;;;;;;;11.65;2.17;;;14.70;99.90;;;;;;6296735;28;20139;-80
2023/11/18 15:37:06;;;;;;;10.00;2.38;;;14.60;99.90;;;;;;6296586;28;20094;-80
2023/11/18 15:40:12;;;;;;;12.50;2.45;;;14.60;99.90;;;;;;6278433;28;20563;-82
2023/11/18 15:43:14;;;;;;;8.52;2.33;;;14.50;99.90;;;;;;6256265;28;20053;-85
2023/11/18 15:46:17;;;;;;;10.38;1.90;;;14.50;99.90;;;;;;6279222;28;20056;-85
2023/11/18 15:49:19;;;;;;;13.20;2.67;;;14.40;99.90;;;;;;6255640;28;20073;-85
2023/11/18 15:52:21;;;;;;;12.07;2.38;;;14.40;99.90;;;;;;6278899;28;20056;-86